»·PEaware :: N204LE KSNA-KAJO

N204LE :: KSNA-KAJO

FLIGHT INFORMATION

Flight Status: Arrived
Operator: Privately registered:
United States
More flights under this callsign
Pilot: Bill F. (18685)
Aircraft: CESSNA 172 SKYHAWK
(C172)
More flights by this aircraft type
Origin: KSNA John Wayne-Orange Co
United States
Destination: KAJO Corona Mun
United States
More flights between these airports :: More routes between these airports
Route: +
File this flight plan on PilotEdge
Remarks:
Altitude:
(Current/Filed)
0ft
Speed:
(Current/Filed)
0kts
Departed: 16-May-18 10:12 PM
Arrived: 16-May-18 10:52 PM
Distance/Time
Traveled:
19nm/0:40
Distance/Time
To Go:
Arrived

Flight Plot

Page will automatically refresh every two minutes.


Map Options




Map Legend


Flown Route
Filed Route
Departure Airport
Arrival Airport
Navaid (VOR, NDB)
Fix

Horizontal Profiles

Position Reports

Time Latitude Longitude Heading Altitude Ground
Speed
16-May-18 22:03 33.667859 -117.871262 220 60ft 0kts
16-May-18 22:04 33.667867 -117.871458 300 60ft 0kts
16-May-18 22:05 33.668852 -117.871181 39 60ft 20kts
16-May-18 22:06 33.673268 -117.867824 19 60ft 10kts
16-May-18 22:07 33.673322 -117.867743 49 60ft 0kts
16-May-18 22:08 33.677027 -117.865273 27 60ft 32kts
16-May-18 22:09 33.679411 -117.863759 27 60ft 0kts
16-May-18 22:10 33.679980 -117.863662 297 60ft 0kts
16-May-18 22:11 33.680031 -117.864210 201 60ft 0kts
16-May-18 22:12 33.673744 -117.868210 207 179ft 73kts
16-May-18 22:13 33.659746 -117.859553 88 700ft 86kts
16-May-18 22:14 33.661809 -117.832188 86 1261ft 85kts
16-May-18 22:15 33.664233 -117.803532 84 1668ft 86kts
16-May-18 22:16 33.679605 -117.787161 358 1809ft 88kts
16-May-18 22:17 33.705171 -117.786989 358 1809ft 97kts
16-May-18 22:18 33.732425 -117.786896 358 1808ft 98kts
16-May-18 22:19 33.759515 -117.788932 334 1808ft 97kts
16-May-18 22:20 33.783648 -117.803657 330 1807ft 97kts
16-May-18 22:21 33.803996 -117.816211 330 1806ft 97kts
16-May-18 22:22 33.828909 -117.828813 357 1782ft 101kts
16-May-18 22:23 33.849477 -117.808279 59 1792ft 101kts
16-May-18 22:24 33.863118 -117.779069 66 1908ft 100kts
16-May-18 22:25 33.872128 -117.747483 74 2174ft 100kts
16-May-18 22:26 33.876197 -117.714332 82 2425ft 100kts
16-May-18 22:27 33.881025 -117.681561 75 2609ft 98kts
16-May-18 22:28 33.887476 -117.648273 77 2321ft 107kts
16-May-18 22:29 33.890228 -117.610938 91 1456ft 96kts
16-May-18 22:30 33.894003 -117.586044 16 1175ft 76kts
16-May-18 22:31 33.897606 -117.605019 269 566ft 71kts
16-May-18 22:32 33.888297 -117.611532 76 1207ft 89kts
16-May-18 22:33 33.891898 -117.584879 76 1287ft 75kts
16-May-18 22:34 33.897728 -117.600402 268 637ft 79kts
16-May-18 22:35 33.886950 -117.616610 176 1152ft 93kts
16-May-18 22:36 33.884981 -117.590171 77 1376ft 85kts
16-May-18 22:37 33.897525 -117.582100 260 1123ft 82kts
16-May-18 22:38 33.897691 -117.604548 265 588ft 62kts
16-May-18 22:39 33.890149 -117.620403 126 1048ft 81kts
16-May-18 22:40 33.891998 -117.590132 80 1085ft 82kts
16-May-18 22:41 33.897661 -117.600897 269 548ft 57kts
16-May-18 22:42 33.895157 -117.621414 201 1042ft 76kts
16-May-18 22:43 33.890829 -117.597307 76 1255ft 100kts
16-May-18 22:44 33.897468 -117.591980 289 878ft 75kts
16-May-18 22:45 33.896216 -117.618793 246 1081ft 85kts
16-May-18 22:46 33.889159 -117.601706 80 1267ft 96kts
16-May-18 22:47 33.898465 -117.587974 272 850ft 71kts
16-May-18 22:48 33.897609 -117.609111 269 657ft 74kts
16-May-18 22:49 33.884499 -117.616279 111 1094ft 84kts
16-May-18 22:50 33.889088 -117.587760 73 1252ft 73kts
16-May-18 22:51 33.897680 -117.599052 272 541ft 58kts
16-May-18 22:52 33.897305 -117.600380 89 537ft 31kts
16-May-18 22:53 33.897620 -117.604708 268 586ft 73kts
16-May-18 22:54 33.889347 -117.620389 167 1116ft 75kts
16-May-18 22:55 33.889006 -117.597013 104 1396ft 80kts
16-May-18 22:56 33.884229 -117.570288 40 1620ft 85kts
16-May-18 22:57 33.897466 -117.593887 272 798ft 100kts
16-May-18 22:58 33.894617 -117.618457 209 1131ft 78kts
16-May-18 22:59 33.886849 -117.601732 74 1293ft 89kts
16-May-18 23:00 33.897338 -117.589055 280 804ft 67kts
16-May-18 23:01 33.896773 -117.602404 180 537ft 11kts
16-May-18 23:02 33.896723 -117.601174 89 537ft 7kts
16-May-18 23:03 33.896599 -117.600465 80 537ft 0kts
16-May-18 23:04 33.896599 -117.600465 80 537ft 0kts
16-May-18 23:05 33.896599 -117.600465 80 537ft 0kts
16-May-18 23:06 33.896599 -117.600465 80 537ft 0kts

Navigation Log

Ident Type
1. KSNA Airport
2. KAJO Airport